<?xml version="1.0" encoding="UTF-8" standalone="no" ?>
<gpx xmlns="http://www.topografix.com/GPX/1/1" xmlns:xsi="http://www.w3.org/2001/XMLSchema-instance" xsi:schemaLocation="http://www.topografix.com/GPX/1/1 http://www.topografix.com/GPX/1/1/gpx.xsd" version="1.1" creator="VisuGPX - https://www.visugpx.com">
  <metadata>
    <name>Pic de Montaut</name>
  </metadata>
  <wpt lat="42.97417" lon="0.41154">
    <ele>1440</ele>
    <name><![CDATA[Cabane-des-3-Collantigues-1440m]]></name>
    <type><![CDATA[user]]></type>
  </wpt>
  <wpt lat="42.97592" lon="0.39665">
    <ele>1122.078125</ele>
    <name><![CDATA[Croisement-1120m]]></name>
    <type><![CDATA[user]]></type>
  </wpt>
  <wpt lat="42.97952" lon="0.39953">
    <ele>1154.3396</ele>
    <name><![CDATA[Croisement-1154m]]></name>
    <type><![CDATA[user]]></type>
  </wpt>
  <wpt lat="42.97768" lon="0.40146">
    <ele>1235.856079</ele>
    <name><![CDATA[Croisement-1236m]]></name>
    <type><![CDATA[user]]></type>
  </wpt>
  <wpt lat="42.98469" lon="0.39525">
    <ele>1019.608154</ele>
    <name><![CDATA[Depart-1020m]]></name>
    <type><![CDATA[user]]></type>
  </wpt>
  <wpt lat="42.97359" lon="0.42517">
    <ele>1722</ele>
    <name><![CDATA[Pic de Montaut-1722m]]></name>
    <type><![CDATA[user]]></type>
  </wpt>
  <wpt lat="42.96655" lon="0.37694">
    <ele>640.06640625</ele>
    <name><![CDATA[Sarrancolin-660m]]></name>
    <type><![CDATA[user]]></type>
  </wpt>
  <wpt lat="42.97564" lon="0.40428">
    <ele>1348.939819</ele>
    <name><![CDATA[Sortie-Bois-1349m]]></name>
    <type><![CDATA[user]]></type>
  </wpt>
  <trk>
    <name><![CDATA[Pic-de-Montaut: 12 AVR 2017 09:08]]></name>
    <trkseg>
      <trkpt lat="42.98481" lon="0.3953">
        <ele>1030.85</ele>
        <time>2017-04-12T07:08:33Z</time>
      </trkpt>
      <trkpt lat="42.98481" lon="0.3953">
        <ele>1030.85</ele>
        <time>2017-04-12T07:08:34Z</time>
      </trkpt>
      <trkpt lat="42.9848" lon="0.39536">
        <ele>1030.31</ele>
        <time>2017-04-12T07:13:22Z</time>
      </trkpt>
      <trkpt lat="42.98482" lon="0.39558">
        <ele>1034.06</ele>
        <time>2017-04-12T07:14:36Z</time>
      </trkpt>
      <trkpt lat="42.98474" lon="0.39568">
        <ele>1038.18</ele>
        <time>2017-04-12T07:14:55Z</time>
      </trkpt>
      <trkpt lat="42.98464" lon="0.39576">
        <ele>1042.28</ele>
        <time>2017-04-12T07:15:13Z</time>
      </trkpt>
      <trkpt lat="42.98458" lon="0.39584">
        <ele>1045.67</ele>
        <time>2017-04-12T07:15:25Z</time>
      </trkpt>
      <trkpt lat="42.98451" lon="0.39593">
        <ele>1048.72</ele>
        <time>2017-04-12T07:15:41Z</time>
      </trkpt>
      <trkpt lat="42.98443" lon="0.39598">
        <ele>1051.81</ele>
        <time>2017-04-12T07:15:57Z</time>
      </trkpt>
      <trkpt lat="42.98425" lon="0.39606">
        <ele>1056.98</ele>
        <time>2017-04-12T07:16:20Z</time>
      </trkpt>
      <trkpt lat="42.98414" lon="0.39613">
        <ele>1060.03</ele>
        <time>2017-04-12T07:16:37Z</time>
      </trkpt>
      <trkpt lat="42.98406" lon="0.39615">
        <ele>1063.09</ele>
        <time>2017-04-12T07:16:53Z</time>
      </trkpt>
      <trkpt lat="42.98392" lon="0.39617">
        <ele>1066.82</ele>
        <time>2017-04-12T07:17:11Z</time>
      </trkpt>
      <trkpt lat="42.98391" lon="0.39617">
        <ele>1066.6</ele>
        <time>2017-04-12T07:17:12Z</time>
      </trkpt>
      <trkpt lat="42.98371" lon="0.39617">
        <ele>1073.06</ele>
        <time>2017-04-12T07:17:43Z</time>
      </trkpt>
      <trkpt lat="42.98352" lon="0.39626">
        <ele>1078.25</ele>
        <time>2017-04-12T07:18:16Z</time>
      </trkpt>
      <trkpt lat="42.98344" lon="0.39628">
        <ele>1081.41</ele>
        <time>2017-04-12T07:18:29Z</time>
      </trkpt>
      <trkpt lat="42.98335" lon="0.39634">
        <ele>1084.66</ele>
        <time>2017-04-12T07:18:44Z</time>
      </trkpt>
      <trkpt lat="42.98324" lon="0.39638">
        <ele>1087.77</ele>
        <time>2017-04-12T07:18:56Z</time>
      </trkpt>
      <trkpt lat="42.98314" lon="0.39644">
        <ele>1091.76</ele>
        <time>2017-04-12T07:19:15Z</time>
      </trkpt>
      <trkpt lat="42.98301" lon="0.39652">
        <ele>1094.77</ele>
        <time>2017-04-12T07:19:32Z</time>
      </trkpt>
      <trkpt lat="42.98288" lon="0.39657">
        <ele>1098.1</ele>
        <time>2017-04-12T07:19:51Z</time>
      </trkpt>
      <trkpt lat="42.98278" lon="0.39663">
        <ele>1102.04</ele>
        <time>2017-04-12T07:20:05Z</time>
      </trkpt>
      <trkpt lat="42.98251" lon="0.39683">
        <ele>1107.79</ele>
        <time>2017-04-12T07:20:42Z</time>
      </trkpt>
      <trkpt lat="42.98225" lon="0.39699">
        <ele>1112.87</ele>
        <time>2017-04-12T07:21:11Z</time>
      </trkpt>
      <trkpt lat="42.98203" lon="0.3971">
        <ele>1117.26</ele>
        <time>2017-04-12T07:21:34Z</time>
      </trkpt>
      <trkpt lat="42.98191" lon="0.39719">
        <ele>1119.05</ele>
        <time>2017-04-12T07:21:51Z</time>
      </trkpt>
      <trkpt lat="42.98175" lon="0.39733">
        <ele>1122.75</ele>
        <time>2017-04-12T07:22:06Z</time>
      </trkpt>
      <trkpt lat="42.98163" lon="0.39752">
        <ele>1126.08</ele>
        <time>2017-04-12T07:22:26Z</time>
      </trkpt>
      <trkpt lat="42.98144" lon="0.3977">
        <ele>1130.84</ele>
        <time>2017-04-12T07:22:53Z</time>
      </trkpt>
      <trkpt lat="42.98136" lon="0.39783">
        <ele>1134.48</ele>
        <time>2017-04-12T07:23:05Z</time>
      </trkpt>
      <trkpt lat="42.9812" lon="0.39796">
        <ele>1137.55</ele>
        <time>2017-04-12T07:23:23Z</time>
      </trkpt>
      <trkpt lat="42.98102" lon="0.39814">
        <ele>1140.63</ele>
        <time>2017-04-12T07:23:41Z</time>
      </trkpt>
      <trkpt lat="42.98076" lon="0.39831">
        <ele>1144.79</ele>
        <time>2017-04-12T07:24:10Z</time>
      </trkpt>
      <trkpt lat="42.98072" lon="0.39835">
        <ele>1144.94</ele>
        <time>2017-04-12T07:24:14Z</time>
      </trkpt>
      <trkpt lat="42.98046" lon="0.3985">
        <ele>1148.1</ele>
        <time>2017-04-12T07:24:51Z</time>
      </trkpt>
      <trkpt lat="42.98022" lon="0.39877">
        <ele>1151.8</ele>
        <time>2017-04-12T07:25:29Z</time>
      </trkpt>
      <trkpt lat="42.97992" lon="0.39917">
        <ele>1154.02</ele>
        <time>2017-04-12T07:26:09Z</time>
      </trkpt>
      <trkpt lat="42.97941" lon="0.39968">
        <ele>1159.2</ele>
        <time>2017-04-12T07:28:02Z</time>
      </trkpt>
      <trkpt lat="42.97936" lon="0.39978">
        <ele>1162.43</ele>
        <time>2017-04-12T07:28:20Z</time>
      </trkpt>
      <trkpt lat="42.97925" lon="0.39987">
        <ele>1165.49</ele>
        <time>2017-04-12T07:28:35Z</time>
      </trkpt>
      <trkpt lat="42.97919" lon="0.39997">
        <ele>1168.61</ele>
        <time>2017-04-12T07:28:48Z</time>
      </trkpt>
      <trkpt lat="42.9791" lon="0.40004">
        <ele>1171.63</ele>
        <time>2017-04-12T07:29:02Z</time>
      </trkpt>
      <trkpt lat="42.97902" lon="0.40011">
        <ele>1174.79</ele>
        <time>2017-04-12T07:29:20Z</time>
      </trkpt>
      <trkpt lat="42.97897" lon="0.40019">
        <ele>1178.21</ele>
        <time>2017-04-12T07:29:36Z</time>
      </trkpt>
      <trkpt lat="42.97891" lon="0.40025">
        <ele>1181.4</ele>
        <time>2017-04-12T07:29:50Z</time>
      </trkpt>
      <trkpt lat="42.97883" lon="0.40029">
        <ele>1184.42</ele>
        <time>2017-04-12T07:30:10Z</time>
      </trkpt>
      <trkpt lat="42.97878" lon="0.40034">
        <ele>1187.46</ele>
        <time>2017-04-12T07:30:20Z</time>
      </trkpt>
      <trkpt lat="42.9787" lon="0.40043">
        <ele>1190.51</ele>
        <time>2017-04-12T07:30:37Z</time>
      </trkpt>
      <trkpt lat="42.9787" lon="0.40053">
        <ele>1193.9</ele>
        <time>2017-04-12T07:30:53Z</time>
      </trkpt>
      <trkpt lat="42.97869" lon="0.40064">
        <ele>1197.13</ele>
        <time>2017-04-12T07:31:09Z</time>
      </trkpt>
      <trkpt lat="42.97864" lon="0.40076">
        <ele>1200.55</ele>
        <time>2017-04-12T07:31:26Z</time>
      </trkpt>
      <trkpt lat="42.9786" lon="0.40085">
        <ele>1204.53</ele>
        <time>2017-04-12T07:31:42Z</time>
      </trkpt>
      <trkpt lat="42.97841" lon="0.40099">
        <ele>1210.02</ele>
        <time>2017-04-12T07:32:43Z</time>
      </trkpt>
      <trkpt lat="42.97836" lon="0.40104">
        <ele>1213.14</ele>
        <time>2017-04-12T07:32:55Z</time>
      </trkpt>
      <trkpt lat="42.97828" lon="0.40107">
        <ele>1216.24</ele>
        <time>2017-04-12T07:33:11Z</time>
      </trkpt>
      <trkpt lat="42.97821" lon="0.4011">
        <ele>1219.56</ele>
        <time>2017-04-12T07:33:26Z</time>
      </trkpt>
      <trkpt lat="42.97814" lon="0.40122">
        <ele>1222.63</ele>
        <time>2017-04-12T07:33:46Z</time>
      </trkpt>
      <trkpt lat="42.9781" lon="0.40132">
        <ele>1225.64</ele>
        <time>2017-04-12T07:34:00Z</time>
      </trkpt>
      <trkpt lat="42.97799" lon="0.40142">
        <ele>1228.89</ele>
        <time>2017-04-12T07:34:19Z</time>
      </trkpt>
      <trkpt lat="42.97797" lon="0.40139">
        <ele>1228.94</ele>
        <time>2017-04-12T07:34:36Z</time>
      </trkpt>
      <trkpt lat="42.97775" lon="0.40144">
        <ele>1233.22</ele>
        <time>2017-04-12T07:39:56Z</time>
      </trkpt>
      <trkpt lat="42.97768" lon="0.40147">
        <ele>1236.43</ele>
        <time>2017-04-12T07:40:14Z</time>
      </trkpt>
      <trkpt lat="42.97768" lon="0.40145">
        <ele>1236.26</ele>
        <time>2017-04-12T07:40:31Z</time>
      </trkpt>
      <trkpt lat="42.97754" lon="0.40155">
        <ele>1240.11</ele>
        <time>2017-04-12T07:41:06Z</time>
      </trkpt>
      <trkpt lat="42.97745" lon="0.40164">
        <ele>1243.48</ele>
        <time>2017-04-12T07:41:22Z</time>
      </trkpt>
      <trkpt lat="42.97735" lon="0.40177">
        <ele>1248.66</ele>
        <time>2017-04-12T07:41:46Z</time>
      </trkpt>
      <trkpt lat="42.97727" lon="0.40185">
        <ele>1251.95</ele>
        <time>2017-04-12T07:42:00Z</time>
      </trkpt>
      <trkpt lat="42.97718" lon="0.40193">
        <ele>1254.99</ele>
        <time>2017-04-12T07:42:16Z</time>
      </trkpt>
      <trkpt lat="42.97713" lon="0.40205">
        <ele>1256.48</ele>
        <time>2017-04-12T07:43:00Z</time>
      </trkpt>
      <trkpt lat="42.97707" lon="0.40215">
        <ele>1259.67</ele>
        <time>2017-04-12T07:43:12Z</time>
      </trkpt>
      <trkpt lat="42.97701" lon="0.40228">
        <ele>1263.11</ele>
        <time>2017-04-12T07:43:28Z</time>
      </trkpt>
      <trkpt lat="42.97696" lon="0.4024">
        <ele>1266.19</ele>
        <time>2017-04-12T07:43:43Z</time>
      </trkpt>
      <trkpt lat="42.9769" lon="0.4025">
        <ele>1269.47</ele>
        <time>2017-04-12T07:44:01Z</time>
      </trkpt>
      <trkpt lat="42.97686" lon="0.40261">
        <ele>1272.93</ele>
        <time>2017-04-12T07:44:16Z</time>
      </trkpt>
      <trkpt lat="42.97681" lon="0.40275">
        <ele>1275.94</ele>
        <time>2017-04-12T07:44:31Z</time>
      </trkpt>
      <trkpt lat="42.97681" lon="0.40276">
        <ele>1275.96</ele>
        <time>2017-04-12T07:44:32Z</time>
      </trkpt>
      <trkpt lat="42.97679" lon="0.40288">
        <ele>1278.98</ele>
        <time>2017-04-12T07:44:46Z</time>
      </trkpt>
      <trkpt lat="42.97678" lon="0.40302">
        <ele>1282.14</ele>
        <time>2017-04-12T07:45:03Z</time>
      </trkpt>
      <trkpt lat="42.97676" lon="0.40316">
        <ele>1285.36</ele>
        <time>2017-04-12T07:45:19Z</time>
      </trkpt>
      <trkpt lat="42.9767" lon="0.40335">
        <ele>1290.21</ele>
        <time>2017-04-12T07:45:43Z</time>
      </trkpt>
      <trkpt lat="42.97668" lon="0.40354">
        <ele>1293.45</ele>
        <time>2017-04-12T07:46:02Z</time>
      </trkpt>
      <trkpt lat="42.97666" lon="0.40368">
        <ele>1298.03</ele>
        <time>2017-04-12T07:46:20Z</time>
      </trkpt>
      <trkpt lat="42.97661" lon="0.40386">
        <ele>1302.78</ele>
        <time>2017-04-12T07:47:04Z</time>
      </trkpt>
      <trkpt lat="42.97659" lon="0.40398">
        <ele>1302.97</ele>
        <time>2017-04-12T07:47:35Z</time>
      </trkpt>
      <trkpt lat="42.97654" lon="0.40404">
        <ele>1305.99</ele>
        <time>2017-04-12T07:47:49Z</time>
      </trkpt>
      <trkpt lat="42.97644" lon="0.40405">
        <ele>1309.25</ele>
        <time>2017-04-12T07:48:05Z</time>
      </trkpt>
      <trkpt lat="42.97637" lon="0.40405">
        <ele>1312.29</ele>
        <time>2017-04-12T07:48:20Z</time>
      </trkpt>
      <trkpt lat="42.97629" lon="0.40406">
        <ele>1315.58</ele>
        <time>2017-04-12T07:48:34Z</time>
      </trkpt>
      <trkpt lat="42.97623" lon="0.40406">
        <ele>1318.62</ele>
        <time>2017-04-12T07:48:46Z</time>
      </trkpt>
      <trkpt lat="42.97612" lon="0.40408">
        <ele>1321.65</ele>
        <time>2017-04-12T07:49:04Z</time>
      </trkpt>
      <trkpt lat="42.97604" lon="0.40398">
        <ele>1324.86</ele>
        <time>2017-04-12T07:49:21Z</time>
      </trkpt>
      <trkpt lat="42.97595" lon="0.40392">
        <ele>1328.01</ele>
        <time>2017-04-12T07:49:35Z</time>
      </trkpt>
      <trkpt lat="42.97585" lon="0.40394">
        <ele>1331.25</ele>
        <time>2017-04-12T07:49:52Z</time>
      </trkpt>
      <trkpt lat="42.97583" lon="0.40397">
        <ele>1334.38</ele>
        <time>2017-04-12T07:50:04Z</time>
      </trkpt>
      <trkpt lat="42.9758" lon="0.40406">
        <ele>1336.32</ele>
        <time>2017-04-12T07:50:44Z</time>
      </trkpt>
      <trkpt lat="42.97568" lon="0.40424">
        <ele>1341.98</ele>
        <time>2017-04-12T07:51:52Z</time>
      </trkpt>
      <trkpt lat="42.9756" lon="0.40432">
        <ele>1345.13</ele>
        <time>2017-04-12T07:52:06Z</time>
      </trkpt>
      <trkpt lat="42.97544" lon="0.40454">
        <ele>1351.01</ele>
        <time>2017-04-12T07:53:00Z</time>
      </trkpt>
      <trkpt lat="42.97539" lon="0.4046">
        <ele>1353.64</ele>
        <time>2017-04-12T07:53:41Z</time>
      </trkpt>
      <trkpt lat="42.97536" lon="0.40467">
        <ele>1354.77</ele>
        <time>2017-04-12T07:55:13Z</time>
      </trkpt>
      <trkpt lat="42.9753" lon="0.40484">
        <ele>1360.09</ele>
        <time>2017-04-12T07:55:50Z</time>
      </trkpt>
      <trkpt lat="42.97525" lon="0.40493">
        <ele>1363.14</ele>
        <time>2017-04-12T07:56:07Z</time>
      </trkpt>
      <trkpt lat="42.97523" lon="0.40491">
        <ele>1363.32</ele>
        <time>2017-04-12T07:56:22Z</time>
      </trkpt>
      <trkpt lat="42.97518" lon="0.40508">
        <ele>1368.26</ele>
        <time>2017-04-12T07:56:54Z</time>
      </trkpt>
      <trkpt lat="42.97489" lon="0.40528">
        <ele>1371.76</ele>
        <time>2017-04-12T07:59:35Z</time>
      </trkpt>
      <trkpt lat="42.97471" lon="0.40567">
        <ele>1376.02</ele>
        <time>2017-04-12T08:00:11Z</time>
      </trkpt>
      <trkpt lat="42.97471" lon="0.40567">
        <ele>1376.24</ele>
        <time>2017-04-12T08:00:21Z</time>
      </trkpt>
      <trkpt lat="42.97463" lon="0.40604">
        <ele>1382.17</ele>
        <time>2017-04-12T08:00:56Z</time>
      </trkpt>
      <trkpt lat="42.97465" lon="0.40616">
        <ele>1385.48</ele>
        <time>2017-04-12T08:01:10Z</time>
      </trkpt>
      <trkpt lat="42.97466" lon="0.40631">
        <ele>1387.65</ele>
        <time>2017-04-12T08:01:45Z</time>
      </trkpt>
      <trkpt lat="42.97462" lon="0.40668">
        <ele>1388.93</ele>
        <time>2017-04-12T08:02:21Z</time>
      </trkpt>
      <trkpt lat="42.97457" lon="0.40712">
        <ele>1392.95</ele>
        <time>2017-04-12T08:02:57Z</time>
      </trkpt>
      <trkpt lat="42.97452" lon="0.40747">
        <ele>1396.78</ele>
        <time>2017-04-12T08:03:25Z</time>
      </trkpt>
      <trkpt lat="42.97451" lon="0.40764">
        <ele>1400.59</ele>
        <time>2017-04-12T08:03:40Z</time>
      </trkpt>
      <trkpt lat="42.97448" lon="0.40773">
        <ele>1399.4</ele>
        <time>2017-04-12T08:03:48Z</time>
      </trkpt>
      <trkpt lat="42.97442" lon="0.40811">
        <ele>1405.15</ele>
        <time>2017-04-12T08:04:22Z</time>
      </trkpt>
      <trkpt lat="42.97437" lon="0.40846">
        <ele>1409.35</ele>
        <time>2017-04-12T08:05:02Z</time>
      </trkpt>
      <trkpt lat="42.97431" lon="0.40878">
        <ele>1415.55</ele>
        <time>2017-04-12T08:05:33Z</time>
      </trkpt>
      <trkpt lat="42.97431" lon="0.40894">
        <ele>1418.69</ele>
        <time>2017-04-12T08:05:51Z</time>
      </trkpt>
      <trkpt lat="42.97431" lon="0.40896">
        <ele>1418.36</ele>
        <time>2017-04-12T08:05:59Z</time>
      </trkpt>
      <trkpt lat="42.97431" lon="0.40931">
        <ele>1423.37</ele>
        <time>2017-04-12T08:06:27Z</time>
      </trkpt>
      <trkpt lat="42.97431" lon="0.40978">
        <ele>1426.74</ele>
        <time>2017-04-12T08:07:00Z</time>
      </trkpt>
      <trkpt lat="42.97434" lon="0.41011">
        <ele>1432.62</ele>
        <time>2017-04-12T08:07:26Z</time>
      </trkpt>
      <trkpt lat="42.97425" lon="0.41023">
        <ele>1435.8</ele>
        <time>2017-04-12T08:07:53Z</time>
      </trkpt>
      <trkpt lat="42.97424" lon="0.41022">
        <ele>1435.45</ele>
        <time>2017-04-12T08:07:54Z</time>
      </trkpt>
      <trkpt lat="42.97417" lon="0.41024">
        <ele>1436.02</ele>
        <time>2017-04-12T08:08:04Z</time>
      </trkpt>
      <trkpt lat="42.97422" lon="0.41033">
        <ele>1439.35</ele>
        <time>2017-04-12T08:09:11Z</time>
      </trkpt>
      <trkpt lat="42.97421" lon="0.41034">
        <ele>1439.51</ele>
        <time>2017-04-12T08:09:28Z</time>
      </trkpt>
      <trkpt lat="42.97417" lon="0.41049">
        <ele>1442.58</ele>
        <time>2017-04-12T08:10:10Z</time>
      </trkpt>
      <trkpt lat="42.97418" lon="0.41052">
        <ele>1442.57</ele>
        <time>2017-04-12T08:10:12Z</time>
      </trkpt>
      <trkpt lat="42.97426" lon="0.41066">
        <ele>1445.09</ele>
        <time>2017-04-12T08:10:30Z</time>
      </trkpt>
      <trkpt lat="42.97436" lon="0.41095">
        <ele>1449.9</ele>
        <time>2017-04-12T08:10:58Z</time>
      </trkpt>
      <trkpt lat="42.97435" lon="0.41108">
        <ele>1453.12</ele>
        <time>2017-04-12T08:11:14Z</time>
      </trkpt>
      <trkpt lat="42.97436" lon="0.41109">
        <ele>1452.36</ele>
        <time>2017-04-12T08:11:22Z</time>
      </trkpt>
      <trkpt lat="42.97418" lon="0.41138">
        <ele>1454.5</ele>
        <time>2017-04-12T08:12:49Z</time>
      </trkpt>
      <trkpt lat="42.97423" lon="0.41135">
        <ele>1455.38</ele>
        <time>2017-04-12T08:14:24Z</time>
      </trkpt>
      <trkpt lat="42.97412" lon="0.41134">
        <ele>1452.73</ele>
        <time>2017-04-12T08:14:53Z</time>
      </trkpt>
      <trkpt lat="42.97411" lon="0.41138">
        <ele>1452.31</ele>
        <time>2017-04-12T08:14:56Z</time>
      </trkpt>
      <trkpt lat="42.97414" lon="0.41161">
        <ele>1455.89</ele>
        <time>2017-04-12T08:15:17Z</time>
      </trkpt>
      <trkpt lat="42.97418" lon="0.41182">
        <ele>1460.07</ele>
        <time>2017-04-12T08:15:47Z</time>
      </trkpt>
      <trkpt lat="42.97427" lon="0.41176">
        <ele>1460.92</ele>
        <time>2017-04-12T08:16:18Z</time>
      </trkpt>
      <trkpt lat="42.97418" lon="0.41205">
        <ele>1462.92</ele>
        <time>2017-04-12T08:17:57Z</time>
      </trkpt>
      <trkpt lat="42.97412" lon="0.41234">
        <ele>1467.56</ele>
        <time>2017-04-12T08:18:38Z</time>
      </trkpt>
      <trkpt lat="42.97402" lon="0.41274">
        <ele>1472.48</ele>
        <time>2017-04-12T08:19:14Z</time>
      </trkpt>
      <trkpt lat="42.97391" lon="0.4131">
        <ele>1476.24</ele>
        <time>2017-04-12T08:19:48Z</time>
      </trkpt>
      <trkpt lat="42.97391" lon="0.41321">
        <ele>1478.67</ele>
        <time>2017-04-12T08:20:30Z</time>
      </trkpt>
      <trkpt lat="42.9739" lon="0.41341">
        <ele>1482.85</ele>
        <time>2017-04-12T08:21:11Z</time>
      </trkpt>
      <trkpt lat="42.9739" lon="0.41342">
        <ele>1483.03</ele>
        <time>2017-04-12T08:21:12Z</time>
      </trkpt>
      <trkpt lat="42.9739" lon="0.41359">
        <ele>1486.19</ele>
        <time>2017-04-12T08:21:29Z</time>
      </trkpt>
      <trkpt lat="42.97398" lon="0.41379">
        <ele>1490.39</ele>
        <time>2017-04-12T08:21:51Z</time>
      </trkpt>
      <trkpt lat="42.97399" lon="0.41383">
        <ele>1490.39</ele>
        <time>2017-04-12T08:21:54Z</time>
      </trkpt>
      <trkpt lat="42.97399" lon="0.41408">
        <ele>1493.85</ele>
        <time>2017-04-12T08:22:17Z</time>
      </trkpt>
      <trkpt lat="42.97401" lon="0.41425">
        <ele>1494.92</ele>
        <time>2017-04-12T08:22:32Z</time>
      </trkpt>
      <trkpt lat="42.97397" lon="0.41447">
        <ele>1497.72</ele>
        <time>2017-04-12T08:22:53Z</time>
      </trkpt>
      <trkpt lat="42.97381" lon="0.41489">
        <ele>1501.32</ele>
        <time>2017-04-12T08:25:07Z</time>
      </trkpt>
      <trkpt lat="42.97379" lon="0.41512">
        <ele>1504.64</ele>
        <time>2017-04-12T08:25:27Z</time>
      </trkpt>
      <trkpt lat="42.97376" lon="0.41554">
        <ele>1509.65</ele>
        <time>2017-04-12T08:26:06Z</time>
      </trkpt>
      <trkpt lat="42.97364" lon="0.4158">
        <ele>1513.21</ele>
        <time>2017-04-12T08:26:42Z</time>
      </trkpt>
      <trkpt lat="42.97355" lon="0.41587">
        <ele>1514.13</ele>
        <time>2017-04-12T08:27:03Z</time>
      </trkpt>
      <trkpt lat="42.97337" lon="0.41623">
        <ele>1518.63</ele>
        <time>2017-04-12T08:27:54Z</time>
      </trkpt>
      <trkpt lat="42.97346" lon="0.41639">
        <ele>1521.31</ele>
        <time>2017-04-12T08:28:14Z</time>
      </trkpt>
      <trkpt lat="42.97349" lon="0.41706">
        <ele>1524.22</ele>
        <time>2017-04-12T08:31:21Z</time>
      </trkpt>
      <trkpt lat="42.97346" lon="0.41741">
        <ele>1530.03</ele>
        <time>2017-04-12T08:31:53Z</time>
      </trkpt>
      <trkpt lat="42.97344" lon="0.41755">
        <ele>1533.15</ele>
        <time>2017-04-12T08:32:09Z</time>
      </trkpt>
      <trkpt lat="42.97339" lon="0.41769">
        <ele>1536.37</ele>
        <time>2017-04-12T08:32:27Z</time>
      </trkpt>
      <trkpt lat="42.97335" lon="0.41784">
        <ele>1539.42</ele>
        <time>2017-04-12T08:32:44Z</time>
      </trkpt>
      <trkpt lat="42.97333" lon="0.41799">
        <ele>1542.8</ele>
        <time>2017-04-12T08:33:06Z</time>
      </trkpt>
      <trkpt lat="42.97327" lon="0.41815">
        <ele>1546.15</ele>
        <time>2017-04-12T08:33:26Z</time>
      </trkpt>
      <trkpt lat="42.97311" lon="0.41852">
        <ele>1550.18</ele>
        <time>2017-04-12T08:34:08Z</time>
      </trkpt>
      <trkpt lat="42.97305" lon="0.41872">
        <ele>1553.4</ele>
        <time>2017-04-12T08:34:29Z</time>
      </trkpt>
      <trkpt lat="42.97304" lon="0.41885">
        <ele>1556.69</ele>
        <time>2017-04-12T08:34:45Z</time>
      </trkpt>
      <trkpt lat="42.97306" lon="0.41894">
        <ele>1560.19</ele>
        <time>2017-04-12T08:35:01Z</time>
      </trkpt>
      <trkpt lat="42.97308" lon="0.41903">
        <ele>1563.25</ele>
        <time>2017-04-12T08:35:18Z</time>
      </trkpt>
      <trkpt lat="42.9732" lon="0.41912">
        <ele>1567.96</ele>
        <time>2017-04-12T08:35:56Z</time>
      </trkpt>
      <trkpt lat="42.97317" lon="0.41921">
        <ele>1570.98</ele>
        <time>2017-04-12T08:36:07Z</time>
      </trkpt>
      <trkpt lat="42.97309" lon="0.41945">
        <ele>1575.74</ele>
        <time>2017-04-12T08:36:43Z</time>
      </trkpt>
      <trkpt lat="42.97316" lon="0.41949">
        <ele>1578.81</ele>
        <time>2017-04-12T08:36:58Z</time>
      </trkpt>
      <trkpt lat="42.97321" lon="0.41956">
        <ele>1581.89</ele>
        <time>2017-04-12T08:37:11Z</time>
      </trkpt>
      <trkpt lat="42.97321" lon="0.41976">
        <ele>1588.34</ele>
        <time>2017-04-12T08:37:44Z</time>
      </trkpt>
      <trkpt lat="42.9732" lon="0.41983">
        <ele>1589.53</ele>
        <time>2017-04-12T08:38:21Z</time>
      </trkpt>
      <trkpt lat="42.97315" lon="0.41995">
        <ele>1592.79</ele>
        <time>2017-04-12T08:40:03Z</time>
      </trkpt>
      <trkpt lat="42.97312" lon="0.42009">
        <ele>1595.94</ele>
        <time>2017-04-12T08:40:23Z</time>
      </trkpt>
      <trkpt lat="42.97314" lon="0.42022">
        <ele>1601.44</ele>
        <time>2017-04-12T08:40:52Z</time>
      </trkpt>
      <trkpt lat="42.97322" lon="0.42027">
        <ele>1604.46</ele>
        <time>2017-04-12T08:41:09Z</time>
      </trkpt>
      <trkpt lat="42.97321" lon="0.42038">
        <ele>1607.64</ele>
        <time>2017-04-12T08:41:28Z</time>
      </trkpt>
      <trkpt lat="42.97323" lon="0.42052">
        <ele>1611.6</ele>
        <time>2017-04-12T08:41:54Z</time>
      </trkpt>
      <trkpt lat="42.97331" lon="0.42067">
        <ele>1617.51</ele>
        <time>2017-04-12T08:42:56Z</time>
      </trkpt>
      <trkpt lat="42.97337" lon="0.42078">
        <ele>1620.57</ele>
        <time>2017-04-12T08:43:13Z</time>
      </trkpt>
      <trkpt lat="42.97339" lon="0.42087">
        <ele>1623.64</ele>
        <time>2017-04-12T08:43:24Z</time>
      </trkpt>
      <trkpt lat="42.97344" lon="0.421">
        <ele>1627.49</ele>
        <time>2017-04-12T08:43:45Z</time>
      </trkpt>
      <trkpt lat="42.97346" lon="0.42122">
        <ele>1633.86</ele>
        <time>2017-04-12T08:44:20Z</time>
      </trkpt>
      <trkpt lat="42.97346" lon="0.42135">
        <ele>1636.93</ele>
        <time>2017-04-12T08:44:37Z</time>
      </trkpt>
      <trkpt lat="42.97347" lon="0.42147">
        <ele>1640.44</ele>
        <time>2017-04-12T08:44:52Z</time>
      </trkpt>
      <trkpt lat="42.97348" lon="0.42154">
        <ele>1641.48</ele>
        <time>2017-04-12T08:45:20Z</time>
      </trkpt>
      <trkpt lat="42.97348" lon="0.42176">
        <ele>1645.58</ele>
        <time>2017-04-12T08:46:15Z</time>
      </trkpt>
      <trkpt lat="42.97349" lon="0.42186">
        <ele>1646.95</ele>
        <time>2017-04-12T08:47:13Z</time>
      </trkpt>
      <trkpt lat="42.97349" lon="0.42203">
        <ele>1651.95</ele>
        <time>2017-04-12T08:47:30Z</time>
      </trkpt>
      <trkpt lat="42.97349" lon="0.4222">
        <ele>1655.19</ele>
        <time>2017-04-12T08:47:46Z</time>
      </trkpt>
      <trkpt lat="42.97352" lon="0.42244">
        <ele>1661.16</ele>
        <time>2017-04-12T08:48:17Z</time>
      </trkpt>
      <trkpt lat="42.97352" lon="0.42266">
        <ele>1666.51</ele>
        <time>2017-04-12T08:48:47Z</time>
      </trkpt>
      <trkpt lat="42.97354" lon="0.42277">
        <ele>1670.11</ele>
        <time>2017-04-12T08:49:01Z</time>
      </trkpt>
      <trkpt lat="42.97357" lon="0.42281">
        <ele>1670.94</ele>
        <time>2017-04-12T08:49:44Z</time>
      </trkpt>
      <trkpt lat="42.9736" lon="0.423">
        <ele>1676.52</ele>
        <time>2017-04-12T08:50:09Z</time>
      </trkpt>
      <trkpt lat="42.9736" lon="0.42314">
        <ele>1679.58</ele>
        <time>2017-04-12T08:50:25Z</time>
      </trkpt>
      <trkpt lat="42.97362" lon="0.42334">
        <ele>1684.4</ele>
        <time>2017-04-12T08:50:49Z</time>
      </trkpt>
      <trkpt lat="42.97366" lon="0.42345">
        <ele>1687.87</ele>
        <time>2017-04-12T08:51:03Z</time>
      </trkpt>
      <trkpt lat="42.97365" lon="0.42361">
        <ele>1690.91</ele>
        <time>2017-04-12T08:51:18Z</time>
      </trkpt>
      <trkpt lat="42.9737" lon="0.42382">
        <ele>1695.66</ele>
        <time>2017-04-12T08:52:43Z</time>
      </trkpt>
      <trkpt lat="42.97369" lon="0.42395">
        <ele>1698.84</ele>
        <time>2017-04-12T08:53:00Z</time>
      </trkpt>
      <trkpt lat="42.97365" lon="0.42409">
        <ele>1702</ele>
        <time>2017-04-12T08:53:16Z</time>
      </trkpt>
      <trkpt lat="42.97366" lon="0.42421">
        <ele>1705.27</ele>
        <time>2017-04-12T08:53:33Z</time>
      </trkpt>
      <trkpt lat="42.97371" lon="0.42428">
        <ele>1705.35</ele>
        <time>2017-04-12T08:53:53Z</time>
      </trkpt>
      <trkpt lat="42.9737" lon="0.42444">
        <ele>1708.79</ele>
        <time>2017-04-12T08:54:33Z</time>
      </trkpt>
      <trkpt lat="42.9737" lon="0.42467">
        <ele>1714.04</ele>
        <time>2017-04-12T08:55:07Z</time>
      </trkpt>
      <trkpt lat="42.97373" lon="0.42491">
        <ele>1716.07</ele>
        <time>2017-04-12T08:55:40Z</time>
      </trkpt>
      <trkpt lat="42.97358" lon="0.42522">
        <ele>1716.63</ele>
        <time>2017-04-12T08:56:34Z</time>
      </trkpt>
      <trkpt lat="42.97372" lon="0.42493">
        <ele>1715.33</ele>
        <time>2017-04-12T08:58:11Z</time>
      </trkpt>
      <trkpt lat="42.97374" lon="0.42492">
        <ele>1718.3</ele>
        <time>2017-04-12T09:27:10Z</time>
      </trkpt>
      <trkpt lat="42.97374" lon="0.42493">
        <ele>1718.3</ele>
        <time>2017-04-12T09:28:47Z</time>
      </trkpt>
      <trkpt lat="42.97375" lon="0.42489">
        <ele>1718.4</ele>
        <time>2017-04-12T09:39:10Z</time>
      </trkpt>
      <trkpt lat="42.97375" lon="0.42491">
        <ele>1720.18</ele>
        <time>2017-04-12T09:59:55Z</time>
      </trkpt>
      <trkpt lat="42.97376" lon="0.4249">
        <ele>1721.34</ele>
        <time>2017-04-12T10:13:42Z</time>
      </trkpt>
      <trkpt lat="42.97379" lon="0.4245">
        <ele>1716.88</ele>
        <time>2017-04-12T10:42:43Z</time>
      </trkpt>
      <trkpt lat="42.97379" lon="0.42434">
        <ele>1713.65</ele>
        <time>2017-04-12T10:42:58Z</time>
      </trkpt>
      <trkpt lat="42.97381" lon="0.42411">
        <ele>1707.42</ele>
        <time>2017-04-12T10:43:18Z</time>
      </trkpt>
      <trkpt lat="42.97376" lon="0.42392">
        <ele>1703.74</ele>
        <time>2017-04-12T10:43:39Z</time>
      </trkpt>
      <trkpt lat="42.97377" lon="0.42375">
        <ele>1700.24</ele>
        <time>2017-04-12T10:43:53Z</time>
      </trkpt>
      <trkpt lat="42.97374" lon="0.42362">
        <ele>1696.94</ele>
        <time>2017-04-12T10:44:14Z</time>
      </trkpt>
      <trkpt lat="42.97371" lon="0.42349">
        <ele>1693.84</ele>
        <time>2017-04-12T10:44:25Z</time>
      </trkpt>
      <trkpt lat="42.97366" lon="0.42326">
        <ele>1687.77</ele>
        <time>2017-04-12T10:44:50Z</time>
      </trkpt>
      <trkpt lat="42.97365" lon="0.42317">
        <ele>1685.27</ele>
        <time>2017-04-12T10:45:08Z</time>
      </trkpt>
      <trkpt lat="42.97365" lon="0.42309">
        <ele>1683.02</ele>
        <time>2017-04-12T10:46:36Z</time>
      </trkpt>
      <trkpt lat="42.97364" lon="0.42292">
        <ele>1677.52</ele>
        <time>2017-04-12T10:47:07Z</time>
      </trkpt>
      <trkpt lat="42.97359" lon="0.42271">
        <ele>1672.34</ele>
        <time>2017-04-12T10:47:27Z</time>
      </trkpt>
      <trkpt lat="42.9736" lon="0.42259">
        <ele>1668.89</ele>
        <time>2017-04-12T10:47:37Z</time>
      </trkpt>
      <trkpt lat="42.97359" lon="0.42241">
        <ele>1664.76</ele>
        <time>2017-04-12T10:47:52Z</time>
      </trkpt>
      <trkpt lat="42.97356" lon="0.42229">
        <ele>1661.69</ele>
        <time>2017-04-12T10:48:02Z</time>
      </trkpt>
      <trkpt lat="42.97356" lon="0.42216">
        <ele>1658.53</ele>
        <time>2017-04-12T10:48:13Z</time>
      </trkpt>
      <trkpt lat="42.97355" lon="0.42206">
        <ele>1656.49</ele>
        <time>2017-04-12T10:48:24Z</time>
      </trkpt>
      <trkpt lat="42.97353" lon="0.42187">
        <ele>1651.15</ele>
        <time>2017-04-12T10:48:37Z</time>
      </trkpt>
      <trkpt lat="42.97354" lon="0.42185">
        <ele>1651.28</ele>
        <time>2017-04-12T10:48:38Z</time>
      </trkpt>
      <trkpt lat="42.97355" lon="0.42166">
        <ele>1647.51</ele>
        <time>2017-04-12T10:48:53Z</time>
      </trkpt>
      <trkpt lat="42.97354" lon="0.42151">
        <ele>1644.44</ele>
        <time>2017-04-12T10:49:05Z</time>
      </trkpt>
      <trkpt lat="42.97353" lon="0.42139">
        <ele>1641.29</ele>
        <time>2017-04-12T10:49:18Z</time>
      </trkpt>
      <trkpt lat="42.97352" lon="0.42117">
        <ele>1636.33</ele>
        <time>2017-04-12T10:50:16Z</time>
      </trkpt>
      <trkpt lat="42.9735" lon="0.42105">
        <ele>1632.94</ele>
        <time>2017-04-12T10:50:33Z</time>
      </trkpt>
      <trkpt lat="42.97343" lon="0.42088">
        <ele>1627.66</ele>
        <time>2017-04-12T10:51:03Z</time>
      </trkpt>
      <trkpt lat="42.97336" lon="0.4207">
        <ele>1621.82</ele>
        <time>2017-04-12T10:51:30Z</time>
      </trkpt>
      <trkpt lat="42.97332" lon="0.42064">
        <ele>1618.79</ele>
        <time>2017-04-12T10:51:39Z</time>
      </trkpt>
      <trkpt lat="42.97332" lon="0.42053">
        <ele>1615.58</ele>
        <time>2017-04-12T10:51:51Z</time>
      </trkpt>
      <trkpt lat="42.97332" lon="0.42044">
        <ele>1613.97</ele>
        <time>2017-04-12T10:52:14Z</time>
      </trkpt>
      <trkpt lat="42.97337" lon="0.42034">
        <ele>1610.81</ele>
        <time>2017-04-12T10:52:32Z</time>
      </trkpt>
      <trkpt lat="42.9734" lon="0.42019">
        <ele>1606.73</ele>
        <time>2017-04-12T10:52:46Z</time>
      </trkpt>
      <trkpt lat="42.97341" lon="0.42007">
        <ele>1603.48</ele>
        <time>2017-04-12T10:52:58Z</time>
      </trkpt>
      <trkpt lat="42.97342" lon="0.41996">
        <ele>1600.12</ele>
        <time>2017-04-12T10:53:12Z</time>
      </trkpt>
      <trkpt lat="42.97344" lon="0.41985">
        <ele>1596.92</ele>
        <time>2017-04-12T10:53:28Z</time>
      </trkpt>
      <trkpt lat="42.9734" lon="0.41972">
        <ele>1593.01</ele>
        <time>2017-04-12T10:53:48Z</time>
      </trkpt>
      <trkpt lat="42.9734" lon="0.41965">
        <ele>1589.96</ele>
        <time>2017-04-12T10:53:57Z</time>
      </trkpt>
      <trkpt lat="42.97342" lon="0.41952">
        <ele>1586.93</ele>
        <time>2017-04-12T10:54:14Z</time>
      </trkpt>
      <trkpt lat="42.97341" lon="0.41935">
        <ele>1580.87</ele>
        <time>2017-04-12T10:54:35Z</time>
      </trkpt>
      <trkpt lat="42.97341" lon="0.41922">
        <ele>1577.77</ele>
        <time>2017-04-12T10:54:49Z</time>
      </trkpt>
      <trkpt lat="42.97344" lon="0.41907">
        <ele>1574.58</ele>
        <time>2017-04-12T10:55:04Z</time>
      </trkpt>
      <trkpt lat="42.97345" lon="0.41894">
        <ele>1571.48</ele>
        <time>2017-04-12T10:55:17Z</time>
      </trkpt>
      <trkpt lat="42.97348" lon="0.41869">
        <ele>1567.1</ele>
        <time>2017-04-12T10:55:47Z</time>
      </trkpt>
      <trkpt lat="42.97347" lon="0.41852">
        <ele>1562.27</ele>
        <time>2017-04-12T10:56:25Z</time>
      </trkpt>
      <trkpt lat="42.97345" lon="0.4185">
        <ele>1561.58</ele>
        <time>2017-04-12T10:56:56Z</time>
      </trkpt>
      <trkpt lat="42.97345" lon="0.4184">
        <ele>1558.58</ele>
        <time>2017-04-12T10:59:21Z</time>
      </trkpt>
      <trkpt lat="42.97348" lon="0.41827">
        <ele>1555.2</ele>
        <time>2017-04-12T10:59:32Z</time>
      </trkpt>
      <trkpt lat="42.9735" lon="0.41808">
        <ele>1551.18</ele>
        <time>2017-04-12T10:59:47Z</time>
      </trkpt>
      <trkpt lat="42.97351" lon="0.41786">
        <ele>1546.47</ele>
        <time>2017-04-12T11:00:09Z</time>
      </trkpt>
      <trkpt lat="42.97355" lon="0.41772">
        <ele>1543.04</ele>
        <time>2017-04-12T11:00:21Z</time>
      </trkpt>
      <trkpt lat="42.97355" lon="0.41771">
        <ele>1542.74</ele>
        <time>2017-04-12T11:00:22Z</time>
      </trkpt>
      <trkpt lat="42.97355" lon="0.41754">
        <ele>1539.32</ele>
        <time>2017-04-12T11:00:36Z</time>
      </trkpt>
      <trkpt lat="42.97353" lon="0.41745">
        <ele>1536.65</ele>
        <time>2017-04-12T11:00:45Z</time>
      </trkpt>
      <trkpt lat="42.97353" lon="0.4171">
        <ele>1530.59</ele>
        <time>2017-04-12T11:01:08Z</time>
      </trkpt>
      <trkpt lat="42.97342" lon="0.41661">
        <ele>1528.04</ele>
        <time>2017-04-12T11:01:44Z</time>
      </trkpt>
      <trkpt lat="42.97343" lon="0.4163">
        <ele>1526.34</ele>
        <time>2017-04-12T11:02:20Z</time>
      </trkpt>
      <trkpt lat="42.97364" lon="0.41601">
        <ele>1521.18</ele>
        <time>2017-04-12T11:03:05Z</time>
      </trkpt>
      <trkpt lat="42.97368" lon="0.4156">
        <ele>1516.68</ele>
        <time>2017-04-12T11:03:44Z</time>
      </trkpt>
      <trkpt lat="42.97368" lon="0.41559">
        <ele>1516.64</ele>
        <time>2017-04-12T11:03:45Z</time>
      </trkpt>
      <trkpt lat="42.97369" lon="0.41555">
        <ele>1515.69</ele>
        <time>2017-04-12T11:03:49Z</time>
      </trkpt>
      <trkpt lat="42.9737" lon="0.41551">
        <ele>1515.33</ele>
        <time>2017-04-12T11:03:52Z</time>
      </trkpt>
      <trkpt lat="42.97384" lon="0.4152">
        <ele>1511.01</ele>
        <time>2017-04-12T11:04:14Z</time>
      </trkpt>
      <trkpt lat="42.9739" lon="0.41491">
        <ele>1507.74</ele>
        <time>2017-04-12T11:04:37Z</time>
      </trkpt>
      <trkpt lat="42.97387" lon="0.41482">
        <ele>1506.18</ele>
        <time>2017-04-12T11:04:44Z</time>
      </trkpt>
      <trkpt lat="42.97398" lon="0.41429">
        <ele>1502.92</ele>
        <time>2017-04-12T11:05:22Z</time>
      </trkpt>
      <trkpt lat="42.97398" lon="0.414">
        <ele>1498.68</ele>
        <time>2017-04-12T11:05:42Z</time>
      </trkpt>
      <trkpt lat="42.97399" lon="0.41375">
        <ele>1495.23</ele>
        <time>2017-04-12T11:06:03Z</time>
      </trkpt>
      <trkpt lat="42.97396" lon="0.41355">
        <ele>1493.97</ele>
        <time>2017-04-12T11:06:45Z</time>
      </trkpt>
      <trkpt lat="42.97401" lon="0.4133">
        <ele>1488.91</ele>
        <time>2017-04-12T11:07:09Z</time>
      </trkpt>
      <trkpt lat="42.97402" lon="0.41312">
        <ele>1486.2</ele>
        <time>2017-04-12T11:07:32Z</time>
      </trkpt>
      <trkpt lat="42.97414" lon="0.4128">
        <ele>1482.75</ele>
        <time>2017-04-12T11:07:57Z</time>
      </trkpt>
      <trkpt lat="42.9742" lon="0.41258">
        <ele>1478.86</ele>
        <time>2017-04-12T11:08:17Z</time>
      </trkpt>
      <trkpt lat="42.9742" lon="0.41236">
        <ele>1475.34</ele>
        <time>2017-04-12T11:08:34Z</time>
      </trkpt>
      <trkpt lat="42.97421" lon="0.4121">
        <ele>1471.45</ele>
        <time>2017-04-12T11:09:01Z</time>
      </trkpt>
      <trkpt lat="42.97425" lon="0.41186">
        <ele>1469.68</ele>
        <time>2017-04-12T11:09:27Z</time>
      </trkpt>
      <trkpt lat="42.97421" lon="0.41173">
        <ele>1466.25</ele>
        <time>2017-04-12T11:09:37Z</time>
      </trkpt>
      <trkpt lat="42.97417" lon="0.41149">
        <ele>1462.54</ele>
        <time>2017-04-12T11:10:16Z</time>
      </trkpt>
      <trkpt lat="42.97418" lon="0.41148">
        <ele>1462.45</ele>
        <time>2017-04-12T11:10:17Z</time>
      </trkpt>
      <trkpt lat="42.97416" lon="0.41122">
        <ele>1459.12</ele>
        <time>2017-04-12T11:12:05Z</time>
      </trkpt>
      <trkpt lat="42.97413" lon="0.41115">
        <ele>1455.93</ele>
        <time>2017-04-12T11:12:17Z</time>
      </trkpt>
      <trkpt lat="42.97413" lon="0.41076">
        <ele>1451.55</ele>
        <time>2017-04-12T11:12:51Z</time>
      </trkpt>
      <trkpt lat="42.97414" lon="0.41047">
        <ele>1447.03</ele>
        <time>2017-04-12T11:13:16Z</time>
      </trkpt>
      <trkpt lat="42.97416" lon="0.41033">
        <ele>1443.97</ele>
        <time>2017-04-12T11:13:45Z</time>
      </trkpt>
      <trkpt lat="42.97408" lon="0.41028">
        <ele>1440.63</ele>
        <time>2017-04-12T11:15:25Z</time>
      </trkpt>
      <trkpt lat="42.97408" lon="0.41012">
        <ele>1437.58</ele>
        <time>2017-04-12T11:15:38Z</time>
      </trkpt>
      <trkpt lat="42.97413" lon="0.40983">
        <ele>1432.73</ele>
        <time>2017-04-12T11:15:56Z</time>
      </trkpt>
      <trkpt lat="42.97418" lon="0.40917">
        <ele>1428.46</ele>
        <time>2017-04-12T11:16:36Z</time>
      </trkpt>
      <trkpt lat="42.9743" lon="0.40897">
        <ele>1426.46</ele>
        <time>2017-04-12T11:16:58Z</time>
      </trkpt>
      <trkpt lat="42.97432" lon="0.40874">
        <ele>1422.84</ele>
        <time>2017-04-12T11:17:13Z</time>
      </trkpt>
      <trkpt lat="42.97434" lon="0.40862">
        <ele>1419.54</ele>
        <time>2017-04-12T11:17:20Z</time>
      </trkpt>
      <trkpt lat="42.97439" lon="0.40842">
        <ele>1416.75</ele>
        <time>2017-04-12T11:17:34Z</time>
      </trkpt>
      <trkpt lat="42.97444" lon="0.4082">
        <ele>1413.71</ele>
        <time>2017-04-12T11:17:49Z</time>
      </trkpt>
      <trkpt lat="42.97445" lon="0.40819">
        <ele>1413.42</ele>
        <time>2017-04-12T11:17:50Z</time>
      </trkpt>
      <trkpt lat="42.97446" lon="0.40817">
        <ele>1412.22</ele>
        <time>2017-04-12T11:17:52Z</time>
      </trkpt>
      <trkpt lat="42.97449" lon="0.40803">
        <ele>1409.2</ele>
        <time>2017-04-12T11:18:02Z</time>
      </trkpt>
      <trkpt lat="42.97461" lon="0.40766">
        <ele>1404.68</ele>
        <time>2017-04-12T11:18:25Z</time>
      </trkpt>
      <trkpt lat="42.97462" lon="0.40764">
        <ele>1405.13</ele>
        <time>2017-04-12T11:18:30Z</time>
      </trkpt>
      <trkpt lat="42.97472" lon="0.40754">
        <ele>1400.92</ele>
        <time>2017-04-12T11:18:44Z</time>
      </trkpt>
      <trkpt lat="42.97489" lon="0.40713">
        <ele>1397.15</ele>
        <time>2017-04-12T11:19:09Z</time>
      </trkpt>
      <trkpt lat="42.975" lon="0.4068">
        <ele>1394.42</ele>
        <time>2017-04-12T11:19:30Z</time>
      </trkpt>
      <trkpt lat="42.97502" lon="0.40641">
        <ele>1391.2</ele>
        <time>2017-04-12T11:19:51Z</time>
      </trkpt>
      <trkpt lat="42.97501" lon="0.40606">
        <ele>1388.08</ele>
        <time>2017-04-12T11:20:10Z</time>
      </trkpt>
      <trkpt lat="42.97501" lon="0.40579">
        <ele>1384.39</ele>
        <time>2017-04-12T11:20:30Z</time>
      </trkpt>
      <trkpt lat="42.97508" lon="0.40528">
        <ele>1379.35</ele>
        <time>2017-04-12T11:21:10Z</time>
      </trkpt>
      <trkpt lat="42.97513" lon="0.40513">
        <ele>1377.09</ele>
        <time>2017-04-12T11:21:43Z</time>
      </trkpt>
      <trkpt lat="42.9752" lon="0.40503">
        <ele>1373.07</ele>
        <time>2017-04-12T11:22:28Z</time>
      </trkpt>
      <trkpt lat="42.97525" lon="0.40493">
        <ele>1369.48</ele>
        <time>2017-04-12T11:22:41Z</time>
      </trkpt>
      <trkpt lat="42.97525" lon="0.40493">
        <ele>1369.21</ele>
        <time>2017-04-12T11:22:42Z</time>
      </trkpt>
      <trkpt lat="42.9753" lon="0.40483">
        <ele>1366.1</ele>
        <time>2017-04-12T11:22:55Z</time>
      </trkpt>
      <trkpt lat="42.97533" lon="0.40473">
        <ele>1363.08</ele>
        <time>2017-04-12T11:23:07Z</time>
      </trkpt>
      <trkpt lat="42.97539" lon="0.40464">
        <ele>1359.93</ele>
        <time>2017-04-12T11:23:20Z</time>
      </trkpt>
      <trkpt lat="42.97547" lon="0.40448">
        <ele>1355.29</ele>
        <time>2017-04-12T11:23:47Z</time>
      </trkpt>
      <trkpt lat="42.97557" lon="0.40437">
        <ele>1351.9</ele>
        <time>2017-04-12T11:24:01Z</time>
      </trkpt>
      <trkpt lat="42.97569" lon="0.40419">
        <ele>1347.25</ele>
        <time>2017-04-12T11:24:34Z</time>
      </trkpt>
      <trkpt lat="42.97575" lon="0.40407">
        <ele>1343.09</ele>
        <time>2017-04-12T11:25:11Z</time>
      </trkpt>
      <trkpt lat="42.97578" lon="0.404">
        <ele>1340.04</ele>
        <time>2017-04-12T11:25:25Z</time>
      </trkpt>
      <trkpt lat="42.97582" lon="0.40395">
        <ele>1336.98</ele>
        <time>2017-04-12T11:25:37Z</time>
      </trkpt>
      <trkpt lat="42.97588" lon="0.40394">
        <ele>1333.93</ele>
        <time>2017-04-12T11:25:49Z</time>
      </trkpt>
      <trkpt lat="42.97598" lon="0.40392">
        <ele>1330.72</ele>
        <time>2017-04-12T11:26:05Z</time>
      </trkpt>
      <trkpt lat="42.97607" lon="0.40399">
        <ele>1327.63</ele>
        <time>2017-04-12T11:26:20Z</time>
      </trkpt>
      <trkpt lat="42.97623" lon="0.40403">
        <ele>1322.26</ele>
        <time>2017-04-12T11:26:39Z</time>
      </trkpt>
      <trkpt lat="42.97631" lon="0.40404">
        <ele>1318.79</ele>
        <time>2017-04-12T11:26:49Z</time>
      </trkpt>
      <trkpt lat="42.97638" lon="0.40401">
        <ele>1315.55</ele>
        <time>2017-04-12T11:27:04Z</time>
      </trkpt>
      <trkpt lat="42.97647" lon="0.40396">
        <ele>1312.1</ele>
        <time>2017-04-12T11:27:20Z</time>
      </trkpt>
      <trkpt lat="42.97658" lon="0.40384">
        <ele>1307.06</ele>
        <time>2017-04-12T11:27:51Z</time>
      </trkpt>
      <trkpt lat="42.97662" lon="0.4037">
        <ele>1303.17</ele>
        <time>2017-04-12T11:28:08Z</time>
      </trkpt>
      <trkpt lat="42.97663" lon="0.40359">
        <ele>1300.09</ele>
        <time>2017-04-12T11:28:26Z</time>
      </trkpt>
      <trkpt lat="42.97664" lon="0.40348">
        <ele>1296.94</ele>
        <time>2017-04-12T11:28:39Z</time>
      </trkpt>
      <trkpt lat="42.97665" lon="0.40337">
        <ele>1293.83</ele>
        <time>2017-04-12T11:28:51Z</time>
      </trkpt>
      <trkpt lat="42.97668" lon="0.40317">
        <ele>1289.51</ele>
        <time>2017-04-12T11:29:30Z</time>
      </trkpt>
      <trkpt lat="42.9767" lon="0.40303">
        <ele>1285.8</ele>
        <time>2017-04-12T11:30:12Z</time>
      </trkpt>
      <trkpt lat="42.97674" lon="0.40289">
        <ele>1282.77</ele>
        <time>2017-04-12T11:30:28Z</time>
      </trkpt>
      <trkpt lat="42.97678" lon="0.4027">
        <ele>1278.55</ele>
        <time>2017-04-12T11:30:49Z</time>
      </trkpt>
      <trkpt lat="42.97681" lon="0.40259">
        <ele>1275.5</ele>
        <time>2017-04-12T11:31:01Z</time>
      </trkpt>
      <trkpt lat="42.97684" lon="0.40247">
        <ele>1272.42</ele>
        <time>2017-04-12T11:31:15Z</time>
      </trkpt>
      <trkpt lat="42.9769" lon="0.40239">
        <ele>1269.35</ele>
        <time>2017-04-12T11:31:28Z</time>
      </trkpt>
      <trkpt lat="42.97697" lon="0.40223">
        <ele>1265.18</ele>
        <time>2017-04-12T11:31:48Z</time>
      </trkpt>
      <trkpt lat="42.97703" lon="0.40213">
        <ele>1261.73</ele>
        <time>2017-04-12T11:32:03Z</time>
      </trkpt>
      <trkpt lat="42.9771" lon="0.40202">
        <ele>1258.03</ele>
        <time>2017-04-12T11:32:18Z</time>
      </trkpt>
      <trkpt lat="42.97721" lon="0.40181">
        <ele>1252.67</ele>
        <time>2017-04-12T11:32:43Z</time>
      </trkpt>
      <trkpt lat="42.97732" lon="0.4017">
        <ele>1248.01</ele>
        <time>2017-04-12T11:33:00Z</time>
      </trkpt>
      <trkpt lat="42.9774" lon="0.40158">
        <ele>1244.93</ele>
        <time>2017-04-12T11:33:14Z</time>
      </trkpt>
      <trkpt lat="42.9774" lon="0.40158">
        <ele>1244.86</ele>
        <time>2017-04-12T11:33:15Z</time>
      </trkpt>
      <trkpt lat="42.97749" lon="0.40149">
        <ele>1241.69</ele>
        <time>2017-04-12T11:33:28Z</time>
      </trkpt>
      <trkpt lat="42.97756" lon="0.40142">
        <ele>1238.44</ele>
        <time>2017-04-12T11:33:40Z</time>
      </trkpt>
      <trkpt lat="42.97757" lon="0.4014">
        <ele>1238.73</ele>
        <time>2017-04-12T11:33:55Z</time>
      </trkpt>
      <trkpt lat="42.97777" lon="0.40142">
        <ele>1232.39</ele>
        <time>2017-04-12T11:34:39Z</time>
      </trkpt>
      <trkpt lat="42.97795" lon="0.40133">
        <ele>1227.24</ele>
        <time>2017-04-12T11:35:03Z</time>
      </trkpt>
      <trkpt lat="42.97802" lon="0.40125">
        <ele>1224.22</ele>
        <time>2017-04-12T11:35:19Z</time>
      </trkpt>
      <trkpt lat="42.97804" lon="0.40114">
        <ele>1221.13</ele>
        <time>2017-04-12T11:35:38Z</time>
      </trkpt>
      <trkpt lat="42.97822" lon="0.40104">
        <ele>1215.05</ele>
        <time>2017-04-12T11:36:09Z</time>
      </trkpt>
      <trkpt lat="42.9783" lon="0.40101">
        <ele>1211.58</ele>
        <time>2017-04-12T11:36:22Z</time>
      </trkpt>
      <trkpt lat="42.97837" lon="0.40095">
        <ele>1208.13</ele>
        <time>2017-04-12T11:36:35Z</time>
      </trkpt>
      <trkpt lat="42.97848" lon="0.40091">
        <ele>1205.07</ele>
        <time>2017-04-12T11:36:51Z</time>
      </trkpt>
      <trkpt lat="42.97853" lon="0.40085">
        <ele>1201.78</ele>
        <time>2017-04-12T11:37:07Z</time>
      </trkpt>
      <trkpt lat="42.97857" lon="0.40077">
        <ele>1198.61</ele>
        <time>2017-04-12T11:37:21Z</time>
      </trkpt>
      <trkpt lat="42.97861" lon="0.40059">
        <ele>1194.23</ele>
        <time>2017-04-12T11:37:46Z</time>
      </trkpt>
      <trkpt lat="42.97861" lon="0.4005">
        <ele>1191.22</ele>
        <time>2017-04-12T11:38:03Z</time>
      </trkpt>
      <trkpt lat="42.9786" lon="0.40041">
        <ele>1188.02</ele>
        <time>2017-04-12T11:38:16Z</time>
      </trkpt>
      <trkpt lat="42.97875" lon="0.40028">
        <ele>1182.77</ele>
        <time>2017-04-12T11:39:20Z</time>
      </trkpt>
      <trkpt lat="42.97883" lon="0.40025">
        <ele>1179.46</ele>
        <time>2017-04-12T11:39:32Z</time>
      </trkpt>
      <trkpt lat="42.97891" lon="0.40018">
        <ele>1175.49</ele>
        <time>2017-04-12T11:39:47Z</time>
      </trkpt>
      <trkpt lat="42.97903" lon="0.40008">
        <ele>1169.93</ele>
        <time>2017-04-12T11:40:20Z</time>
      </trkpt>
      <trkpt lat="42.9791" lon="0.39999">
        <ele>1166.88</ele>
        <time>2017-04-12T11:40:37Z</time>
      </trkpt>
      <trkpt lat="42.97916" lon="0.39992">
        <ele>1163.25</ele>
        <time>2017-04-12T11:40:54Z</time>
      </trkpt>
      <trkpt lat="42.97923" lon="0.39983">
        <ele>1160</ele>
        <time>2017-04-12T11:41:12Z</time>
      </trkpt>
      <trkpt lat="42.97932" lon="0.39964">
        <ele>1155.57</ele>
        <time>2017-04-12T11:41:36Z</time>
      </trkpt>
      <trkpt lat="42.97939" lon="0.39958">
        <ele>1152.48</ele>
        <time>2017-04-12T11:41:50Z</time>
      </trkpt>
      <trkpt lat="42.97952" lon="0.39949">
        <ele>1150.39</ele>
        <time>2017-04-12T11:42:31Z</time>
      </trkpt>
      <trkpt lat="42.97951" lon="0.39947">
        <ele>1149.71</ele>
        <time>2017-04-12T11:42:34Z</time>
      </trkpt>
      <trkpt lat="42.97941" lon="0.3994">
        <ele>1145.31</ele>
        <time>2017-04-12T11:42:47Z</time>
      </trkpt>
      <trkpt lat="42.9794" lon="0.39937">
        <ele>1145.25</ele>
        <time>2017-04-12T11:42:49Z</time>
      </trkpt>
      <trkpt lat="42.97935" lon="0.39933">
        <ele>1143.9</ele>
        <time>2017-04-12T11:42:54Z</time>
      </trkpt>
      <trkpt lat="42.9791" lon="0.39916">
        <ele>1140.03</ele>
        <time>2017-04-12T11:43:13Z</time>
      </trkpt>
      <trkpt lat="42.97888" lon="0.39906">
        <ele>1136.89</ele>
        <time>2017-04-12T11:43:31Z</time>
      </trkpt>
      <trkpt lat="42.97855" lon="0.39899">
        <ele>1132.85</ele>
        <time>2017-04-12T11:44:02Z</time>
      </trkpt>
      <trkpt lat="42.97843" lon="0.39892">
        <ele>1132.76</ele>
        <time>2017-04-12T11:44:16Z</time>
      </trkpt>
      <trkpt lat="42.97818" lon="0.3988">
        <ele>1130.49</ele>
        <time>2017-04-12T11:44:38Z</time>
      </trkpt>
      <trkpt lat="42.9772" lon="0.39863">
        <ele>1127.97</ele>
        <time>2017-04-12T11:46:11Z</time>
      </trkpt>
      <trkpt lat="42.97701" lon="0.39843">
        <ele>1127.41</ele>
        <time>2017-04-12T11:46:30Z</time>
      </trkpt>
      <trkpt lat="42.97678" lon="0.39821">
        <ele>1125.21</ele>
        <time>2017-04-12T11:46:51Z</time>
      </trkpt>
      <trkpt lat="42.97676" lon="0.39817">
        <ele>1125.05</ele>
        <time>2017-04-12T11:46:54Z</time>
      </trkpt>
      <trkpt lat="42.97639" lon="0.39739">
        <ele>1120.01</ele>
        <time>2017-04-12T11:47:50Z</time>
      </trkpt>
      <trkpt lat="42.9763" lon="0.39708">
        <ele>1118.11</ele>
        <time>2017-04-12T11:48:07Z</time>
      </trkpt>
      <trkpt lat="42.97609" lon="0.39682">
        <ele>1118.2</ele>
        <time>2017-04-12T11:48:27Z</time>
      </trkpt>
      <trkpt lat="42.97591" lon="0.39665">
        <ele>1119.4</ele>
        <time>2017-04-12T11:51:19Z</time>
      </trkpt>
      <trkpt lat="42.97655" lon="0.39693">
        <ele>1111.02</ele>
        <time>2017-04-12T11:52:39Z</time>
      </trkpt>
      <trkpt lat="42.97656" lon="0.39694">
        <ele>1112.03</ele>
        <time>2017-04-12T11:52:40Z</time>
      </trkpt>
      <trkpt lat="42.97663" lon="0.39701">
        <ele>1110.52</ele>
        <time>2017-04-12T11:52:47Z</time>
      </trkpt>
      <trkpt lat="42.97707" lon="0.39693">
        <ele>1106.23</ele>
        <time>2017-04-12T11:53:27Z</time>
      </trkpt>
      <trkpt lat="42.97745" lon="0.39684">
        <ele>1101.62</ele>
        <time>2017-04-12T11:53:55Z</time>
      </trkpt>
      <trkpt lat="42.97773" lon="0.39674">
        <ele>1098.49</ele>
        <time>2017-04-12T11:54:13Z</time>
      </trkpt>
      <trkpt lat="42.97838" lon="0.39668">
        <ele>1092.89</ele>
        <time>2017-04-12T11:54:55Z</time>
      </trkpt>
      <trkpt lat="42.97886" lon="0.39656">
        <ele>1087.73</ele>
        <time>2017-04-12T11:55:30Z</time>
      </trkpt>
      <trkpt lat="42.97935" lon="0.39628">
        <ele>1083.43</ele>
        <time>2017-04-12T11:56:06Z</time>
      </trkpt>
      <trkpt lat="42.97954" lon="0.3961">
        <ele>1080.42</ele>
        <time>2017-04-12T11:56:24Z</time>
      </trkpt>
      <trkpt lat="42.97997" lon="0.39593">
        <ele>1076.9</ele>
        <time>2017-04-12T11:56:57Z</time>
      </trkpt>
      <trkpt lat="42.98037" lon="0.3958">
        <ele>1071.32</ele>
        <time>2017-04-12T11:57:28Z</time>
      </trkpt>
      <trkpt lat="42.98064" lon="0.39571">
        <ele>1067.79</ele>
        <time>2017-04-12T11:57:48Z</time>
      </trkpt>
      <trkpt lat="42.9809" lon="0.39568">
        <ele>1063.38</ele>
        <time>2017-04-12T11:58:06Z</time>
      </trkpt>
      <trkpt lat="42.98133" lon="0.39553">
        <ele>1057.52</ele>
        <time>2017-04-12T11:58:35Z</time>
      </trkpt>
      <trkpt lat="42.9817" lon="0.3953">
        <ele>1052.35</ele>
        <time>2017-04-12T11:59:02Z</time>
      </trkpt>
      <trkpt lat="42.98197" lon="0.39504">
        <ele>1048.34</ele>
        <time>2017-04-12T11:59:24Z</time>
      </trkpt>
      <trkpt lat="42.98235" lon="0.39483">
        <ele>1043.75</ele>
        <time>2017-04-12T11:59:52Z</time>
      </trkpt>
      <trkpt lat="42.98279" lon="0.3947">
        <ele>1040.2</ele>
        <time>2017-04-12T12:00:21Z</time>
      </trkpt>
      <trkpt lat="42.98302" lon="0.39468">
        <ele>1036.81</ele>
        <time>2017-04-12T12:00:39Z</time>
      </trkpt>
      <trkpt lat="42.98344" lon="0.39481">
        <ele>1032.37</ele>
        <time>2017-04-12T12:01:11Z</time>
      </trkpt>
      <trkpt lat="42.98361" lon="0.39486">
        <ele>1029.67</ele>
        <time>2017-04-12T12:01:23Z</time>
      </trkpt>
      <trkpt lat="42.98401" lon="0.39505">
        <ele>1025.33</ele>
        <time>2017-04-12T12:01:55Z</time>
      </trkpt>
      <trkpt lat="42.98465" lon="0.39528">
        <ele>1019.68</ele>
        <time>2017-04-12T12:02:45Z</time>
      </trkpt>
      <trkpt lat="42.98472" lon="0.39524">
        <ele>1019.53</ele>
        <time>2017-04-12T12:03:03Z</time>
      </trkpt>
      <trkpt lat="42.98469" lon="0.39536">
        <ele>1019.2</ele>
        <time>2017-04-12T12:04:50Z</time>
      </trkpt>
    </trkseg>
  </trk>
  <trk>
    <name><![CDATA[Piste-depuis-Sarrancolin]]></name>
    <trkseg>
      <trkpt lat="42.96661" lon="0.37697">
        <ele>640.06640625</ele>
      </trkpt>
      <trkpt lat="42.96672" lon="0.37773">
        <ele>640.06640625</ele>
      </trkpt>
      <trkpt lat="42.96726" lon="0.37936">
        <ele>640.06640625</ele>
      </trkpt>
      <trkpt lat="42.96754" lon="0.37969">
        <ele>640.06640625</ele>
      </trkpt>
      <trkpt lat="42.96764" lon="0.38005">
        <ele>641.06640625</ele>
      </trkpt>
      <trkpt lat="42.96903" lon="0.38044">
        <ele>646.3828125</ele>
      </trkpt>
      <trkpt lat="42.96921" lon="0.38068">
        <ele>650.1796875</ele>
      </trkpt>
      <trkpt lat="42.96907" lon="0.38089">
        <ele>652.828125</ele>
      </trkpt>
      <trkpt lat="42.96872" lon="0.38096">
        <ele>653.4453125</ele>
      </trkpt>
      <trkpt lat="42.9686" lon="0.38123">
        <ele>657.8828125</ele>
      </trkpt>
      <trkpt lat="42.96898" lon="0.38179">
        <ele>665.70703125</ele>
      </trkpt>
      <trkpt lat="42.96927" lon="0.38208">
        <ele>671.421875</ele>
      </trkpt>
      <trkpt lat="42.97042" lon="0.38214">
        <ele>679.08203125</ele>
      </trkpt>
      <trkpt lat="42.97112" lon="0.38174">
        <ele>679.9453125</ele>
      </trkpt>
      <trkpt lat="42.97148" lon="0.38157">
        <ele>683.671875</ele>
      </trkpt>
      <trkpt lat="42.9717" lon="0.38108">
        <ele>681.79296875</ele>
      </trkpt>
      <trkpt lat="42.9719" lon="0.38082">
        <ele>682.07421875</ele>
      </trkpt>
      <trkpt lat="42.97256" lon="0.3809">
        <ele>690.21875</ele>
      </trkpt>
      <trkpt lat="42.97322" lon="0.38143">
        <ele>700.29296875</ele>
      </trkpt>
      <trkpt lat="42.97428" lon="0.38184">
        <ele>708.71484375</ele>
      </trkpt>
      <trkpt lat="42.9756" lon="0.38361">
        <ele>732.28125</ele>
      </trkpt>
      <trkpt lat="42.9773" lon="0.38457">
        <ele>742.66796875</ele>
      </trkpt>
      <trkpt lat="42.97754" lon="0.38514">
        <ele>747.8046875</ele>
      </trkpt>
      <trkpt lat="42.97753" lon="0.38574">
        <ele>759.58203125</ele>
      </trkpt>
      <trkpt lat="42.97767" lon="0.38584">
        <ele>761.0078125</ele>
      </trkpt>
      <trkpt lat="42.97835" lon="0.38573">
        <ele>756.8828125</ele>
      </trkpt>
      <trkpt lat="42.97879" lon="0.38615">
        <ele>766.99609375</ele>
      </trkpt>
      <trkpt lat="42.97978" lon="0.38683">
        <ele>767.32421875</ele>
      </trkpt>
      <trkpt lat="42.98001" lon="0.38714">
        <ele>763.140625</ele>
      </trkpt>
      <trkpt lat="42.97996" lon="0.38767">
        <ele>768.81640625</ele>
      </trkpt>
      <trkpt lat="42.97981" lon="0.38838">
        <ele>784.73828125</ele>
      </trkpt>
      <trkpt lat="42.98036" lon="0.38871">
        <ele>785.80078125</ele>
      </trkpt>
      <trkpt lat="42.98057" lon="0.38882">
        <ele>792.12890625</ele>
      </trkpt>
      <trkpt lat="42.98086" lon="0.3887">
        <ele>793.66796875</ele>
      </trkpt>
      <trkpt lat="42.98113" lon="0.38834">
        <ele>791.91796875</ele>
      </trkpt>
      <trkpt lat="42.98142" lon="0.38793">
        <ele>788.5625</ele>
      </trkpt>
      <trkpt lat="42.98187" lon="0.38782">
        <ele>791.6875</ele>
      </trkpt>
      <trkpt lat="42.98216" lon="0.38786">
        <ele>795.1171875</ele>
      </trkpt>
      <trkpt lat="42.9824" lon="0.388">
        <ele>802.8984375</ele>
      </trkpt>
      <trkpt lat="42.98287" lon="0.38763">
        <ele>800.89453125</ele>
      </trkpt>
      <trkpt lat="42.9831" lon="0.38751">
        <ele>801.15625</ele>
      </trkpt>
      <trkpt lat="42.98341" lon="0.38749">
        <ele>805.0234375</ele>
      </trkpt>
      <trkpt lat="42.98392" lon="0.38772">
        <ele>806.28125</ele>
      </trkpt>
      <trkpt lat="42.98418" lon="0.38809">
        <ele>810.7890625</ele>
      </trkpt>
      <trkpt lat="42.98432" lon="0.3887">
        <ele>825.890625</ele>
      </trkpt>
      <trkpt lat="42.98442" lon="0.38948">
        <ele>844.36328125</ele>
      </trkpt>
      <trkpt lat="42.98454" lon="0.38952">
        <ele>843.09375</ele>
      </trkpt>
      <trkpt lat="42.98476" lon="0.38939">
        <ele>842.27734375</ele>
      </trkpt>
      <trkpt lat="42.98543" lon="0.38863">
        <ele>840.6015625</ele>
      </trkpt>
      <trkpt lat="42.98577" lon="0.38804">
        <ele>840.01171875</ele>
      </trkpt>
      <trkpt lat="42.98607" lon="0.38715">
        <ele>840.01171875</ele>
      </trkpt>
      <trkpt lat="42.98615" lon="0.3866">
        <ele>840.01171875</ele>
      </trkpt>
      <trkpt lat="42.98616" lon="0.38613">
        <ele>840.01171875</ele>
      </trkpt>
      <trkpt lat="42.98634" lon="0.38603">
        <ele>840.01171875</ele>
      </trkpt>
      <trkpt lat="42.98642" lon="0.38635">
        <ele>840.01171875</ele>
      </trkpt>
      <trkpt lat="42.98634" lon="0.38723">
        <ele>840.01171875</ele>
      </trkpt>
      <trkpt lat="42.98605" lon="0.38854">
        <ele>840.01171875</ele>
      </trkpt>
      <trkpt lat="42.98595" lon="0.38891">
        <ele>845.18359375</ele>
      </trkpt>
      <trkpt lat="42.9848" lon="0.39165">
        <ele>898.765625</ele>
      </trkpt>
      <trkpt lat="42.98462" lon="0.39185">
        <ele>905.62109375</ele>
      </trkpt>
      <trkpt lat="42.98447" lon="0.39184">
        <ele>907.625</ele>
      </trkpt>
      <trkpt lat="42.98422" lon="0.39164">
        <ele>906.203125</ele>
      </trkpt>
      <trkpt lat="42.98384" lon="0.39126">
        <ele>906.109375</ele>
      </trkpt>
      <trkpt lat="42.98357" lon="0.39102">
        <ele>906.453125</ele>
      </trkpt>
      <trkpt lat="42.98303" lon="0.39104">
        <ele>916.52734375</ele>
      </trkpt>
      <trkpt lat="42.98245" lon="0.39127">
        <ele>919.25</ele>
      </trkpt>
      <trkpt lat="42.9824" lon="0.39137">
        <ele>921.77734375</ele>
      </trkpt>
      <trkpt lat="42.98248" lon="0.39151">
        <ele>927.96875</ele>
      </trkpt>
      <trkpt lat="42.98283" lon="0.39148">
        <ele>932.56640625</ele>
      </trkpt>
      <trkpt lat="42.98327" lon="0.39157">
        <ele>932.48046875</ele>
      </trkpt>
      <trkpt lat="42.98352" lon="0.39184">
        <ele>936.40234375</ele>
      </trkpt>
      <trkpt lat="42.98368" lon="0.39222">
        <ele>944.8828125</ele>
      </trkpt>
      <trkpt lat="42.98399" lon="0.39271">
        <ele>952.9765625</ele>
      </trkpt>
      <trkpt lat="42.98435" lon="0.39316">
        <ele>962.16015625</ele>
      </trkpt>
      <trkpt lat="42.98471" lon="0.39351">
        <ele>970.4921875</ele>
      </trkpt>
      <trkpt lat="42.98509" lon="0.3935">
        <ele>964.953125</ele>
      </trkpt>
      <trkpt lat="42.98525" lon="0.39353">
        <ele>961.25</ele>
      </trkpt>
      <trkpt lat="42.98521" lon="0.39373">
        <ele>968.5859375</ele>
      </trkpt>
      <trkpt lat="42.98473" lon="0.39374">
        <ele>978.546875</ele>
      </trkpt>
      <trkpt lat="42.98417" lon="0.39345">
        <ele>976.10546875</ele>
      </trkpt>
      <trkpt lat="42.98363" lon="0.39324">
        <ele>982.2109375</ele>
      </trkpt>
      <trkpt lat="42.98325" lon="0.39294">
        <ele>979.6015625</ele>
      </trkpt>
      <trkpt lat="42.98285" lon="0.39286">
        <ele>977.04296875</ele>
      </trkpt>
      <trkpt lat="42.98269" lon="0.393">
        <ele>981.83203125</ele>
      </trkpt>
      <trkpt lat="42.98283" lon="0.39315">
        <ele>987.87890625</ele>
      </trkpt>
      <trkpt lat="42.98301" lon="0.39313">
        <ele>988.13671875</ele>
      </trkpt>
      <trkpt lat="42.98354" lon="0.39378">
        <ele>1003.17578125</ele>
      </trkpt>
      <trkpt lat="42.98472" lon="0.39528">
        <ele>1018.84765625</ele>
      </trkpt>
    </trkseg>
  </trk>
</gpx>